Grand Forks International Airport
KGFK : now visible

Airfield :











YOU CAN JOIN US ON...

 
LOGIN :

Register | Disclaimer

   EN    FR    IT 

 









Legend :    VFR   Marginal VFR   IFR   Intensive IFR   Very Intensive IFR
Visi :
Ceiling :
>= 8 km
>= 3000ft
5 to 8 km
1000 to 3000 ft
1500m to 5 km
500 to 1000 ft
800 to 1500m
200 to 500 ft
< 800m
< 200 ft
Symbols :   Thunderstorms  Fog  Heavy snow  Heavy precipitations  Wind > 20 kt






- Airport Elevation : 845 ft
- IATA code : GFK


KGFK - Grand Forks International

CURRENT METAR :
  • 131653Z 34015G22KT 10SM SCT020 OVC029 M06/M11 A2996 RMK AO2 SLP163 T10561111

EXPIRED METARs :
  • 131553Z 34015G20KT 10SM BKN030 BKN250 M06/M11 A2994 RMK AO2 SLP156 T10561106
  • 131453Z 33010KT 10SM BKN250 M07/M11 A2992 RMK AO2 SLP148 T10671111 53032

TAF KGFK
Valid from the 13 at 16:00 until the 14 at 12:00 UTC


131610Z 1316/1412 34015G23KT P6SM BKN030
FM132000 33014KT P6SM BKN045
FM140300 32006KT P6SM FEW090



MET'MAP, your aeronautical weather chart ! - Copyright ORBIFLY December 2007 - Disclaimer

ORBIFLY MET'MAP TEAM :

Programming & Development : Alexandra Zaïnal
Concept & Development : Baudouin d'Aumeries
Co-Development & Prog : Marc-Olivier Méhu
Technical & hardware support : Manuel Goepfert

Contact : metmap@orbifly.com




SOURCES & CREDITS :

   NOAA       Earth
Advisory